createdAt,value
2023-03-05T00:01:45.843Z,101296.50
2023-03-05T00:04:15.124Z,101290.09
2023-03-05T00:06:41.959Z,101284.56
2023-03-05T00:09:08.739Z,101295.34
2023-03-05T00:11:35.661Z,101288.38
2023-03-05T00:14:06.039Z,101284.84
2023-03-05T00:16:33.342Z,101273.06
2023-03-05T00:19:00.992Z,101276.66
2023-03-05T00:21:28.942Z,101274.66
2023-03-05T00:23:56.684Z,101270.31
2023-03-05T00:26:25.956Z,101272.19
2023-03-05T00:28:53.047Z,101268.47
2023-03-05T00:31:22.241Z,101271.22
2023-03-05T00:33:56.801Z,101262.44
2023-03-05T00:36:24.544Z,101265.88
2023-03-05T00:38:51.519Z,101260.44
2023-03-05T00:41:19.445Z,101254.25
2023-03-05T00:43:46.672Z,101247.81
2023-03-05T00:46:13.217Z,101244.34
2023-03-05T00:48:39.751Z,101246.91
2023-03-05T00:51:06.365Z,101243.38
2023-03-05T00:53:32.886Z,101243.38
2023-03-05T00:55:59.431Z,101238.03
2023-03-05T00:58:26.114Z,101229.19
2023-03-05T01:01:24.606Z,101231.91
2023-03-05T01:03:51.435Z,101227.38
2023-03-05T01:06:20.463Z,101222.84
2023-03-05T01:08:47.104Z,101229.91
2023-03-05T01:11:19.280Z,101225.50
2023-03-05T01:13:46.213Z,101223.72
2023-03-05T01:16:14.937Z,101206.91
2023-03-05T01:18:41.754Z,101204.91
2023-03-05T01:21:09.066Z,101198.78
2023-03-05T01:23:37.268Z,101198.69
2023-03-05T01:26:06.483Z,101193.44
2023-03-05T01:28:33.133Z,101192.66
2023-03-05T01:30:59.650Z,101190.00
2023-03-05T01:33:26.240Z,101186.47
2023-03-05T01:35:52.830Z,101181.22
2023-03-05T01:38:19.402Z,101187.53
2023-03-05T01:40:46.456Z,101188.47
2023-03-05T01:43:28.489Z,101178.56
2023-03-05T01:46:13.346Z,101168.66
2023-03-05T01:48:44.073Z,101166.94
2023-03-05T01:51:10.705Z,101166.22
2023-03-05T01:53:37.551Z,101161.69
2023-03-05T01:56:04.406Z,101158.25
2023-03-05T01:58:31.652Z,101154.72
2023-03-05T02:00:58.757Z,101152.91
2023-03-05T02:03:26.320Z,101152.91
2023-03-05T02:05:53.617Z,101154.81
2023-03-05T02:08:22.709Z,101151.19
2023-03-05T02:10:52.627Z,101151.09
2023-03-05T02:13:25.616Z,101146.84
2023-03-05T02:15:54.152Z,101150.28
2023-03-05T02:18:22.545Z,101150.44
2023-03-05T02:20:56.976Z,101148.53
2023-03-05T02:23:30.668Z,101143.34
2023-03-05T02:25:57.240Z,101144.13
2023-03-05T02:28:49.411Z,101139.78
2023-03-05T02:31:19.185Z,101128.28
2023-03-05T02:33:46.671Z,101136.34
2023-03-05T02:36:15.116Z,101132.69
2023-03-05T02:38:45.024Z,101134.44
2023-03-05T02:41:11.740Z,101123.66
2023-03-05T02:43:38.878Z,101117.44
2023-03-05T02:46:06.007Z,101112.97
2023-03-05T02:48:32.726Z,101117.44
2023-03-05T02:51:00.652Z,101111.47
2023-03-05T02:53:27.252Z,101110.47
2023-03-05T02:55:53.870Z,101113.94
2023-03-05T02:58:20.458Z,101101.59
2023-03-05T03:00:47.119Z,101099.69
2023-03-05T03:03:14.126Z,101101.41
2023-03-05T03:05:41.797Z,101094.25
2023-03-05T03:08:08.443Z,101090.72
2023-03-05T03:10:34.942Z,101088.91
2023-03-05T03:13:01.907Z,101080.91
2023-03-05T03:15:28.466Z,101081.78
2023-03-05T03:18:00.134Z,101083.56
2023-03-05T03:20:27.457Z,101079.13
2023-03-05T03:22:53.982Z,101073.66
2023-03-05T03:25:23.077Z,101069.28
2023-03-05T03:27:51.807Z,101065.59
2023-03-05T03:30:18.903Z,101074.44
2023-03-05T03:32:45.463Z,101062.16
2023-03-05T03:35:13.422Z,101053.91
2023-03-05T03:37:40.304Z,101067.47
2023-03-05T03:40:08.811Z,101063.59
2023-03-05T03:42:35.463Z,101054.66
2023-03-05T03:45:06.613Z,101058.19
2023-03-05T03:47:33.167Z,101053.81
2023-03-05T03:49:59.750Z,101056.47
2023-03-05T03:52:27.422Z,101046.72
2023-03-05T03:54:55.600Z,101051.13
2023-03-05T03:57:22.165Z,101050.25
2023-03-05T03:59:50.165Z,101048.53
2023-03-05T04:02:16.869Z,101047.66
2023-03-05T04:04:44.627Z,101051.13
2023-03-05T04:07:11.563Z,101042.22
2023-03-05T04:09:38.422Z,101028.97
2023-03-05T04:12:36.034Z,101037.81
2023-03-05T04:15:02.711Z,101035.19
2023-03-05T04:17:29.212Z,101028.03
2023-03-05T04:19:55.876Z,101024.59
2023-03-05T04:22:22.469Z,101037.00
2023-03-05T04:24:48.994Z,101020.06
2023-03-05T04:27:16.650Z,101020.25
2023-03-05T04:29:43.242Z,101005.06
2023-03-05T04:32:10.082Z,101004.06
2023-03-05T04:34:37.636Z,101003.16
2023-03-05T04:37:04.241Z,100996.88
2023-03-05T04:39:32.006Z,100997.81
2023-03-05T04:41:58.567Z,100991.59
2023-03-05T04:44:25.966Z,100994.94
2023-03-05T04:46:52.649Z,100994.13
2023-03-05T04:49:19.207Z,100990.53
2023-03-05T04:51:45.844Z,100988.75
2023-03-05T04:54:12.480Z,100990.28
2023-03-05T04:56:39.050Z,100979.84
2023-03-05T04:59:32.178Z,100985.97
2023-03-05T05:01:58.730Z,100987.75
2023-03-05T05:04:25.226Z,100978.84
2023-03-05T05:06:55.884Z,100978.84
2023-03-05T05:09:23.151Z,100972.69
2023-03-05T05:11:50.936Z,100978.91
2023-03-05T05:14:18.005Z,100972.63
2023-03-05T05:16:44.602Z,100969.00
2023-03-05T05:19:11.422Z,100986.00
2023-03-05T05:21:38.119Z,100972.53
2023-03-05T05:24:05.107Z,100974.41
2023-03-05T05:26:31.699Z,100969.00
2023-03-05T05:28:58.189Z,100965.38
2023-03-05T05:31:24.835Z,100976.03
2023-03-05T05:33:51.427Z,100961.94
2023-03-05T05:36:19.485Z,100969.00
2023-03-05T05:38:46.060Z,100967.19
2023-03-05T05:41:14.874Z,100970.19
2023-03-05T05:43:41.669Z,100969.22
2023-03-05T05:46:12.224Z,100954.00
2023-03-05T05:48:38.948Z,100958.41
2023-03-05T05:51:08.704Z,100959.31
2023-03-05T05:53:35.519Z,100957.59
2023-03-05T05:56:05.075Z,100962.09
2023-03-05T05:58:31.946Z,100956.84
2023-03-05T06:00:58.500Z,100962.91
2023-03-05T06:03:25.143Z,100958.56
2023-03-05T06:05:52.002Z,100959.50
2023-03-05T06:08:18.767Z,100965.81
2023-03-05T06:10:45.295Z,100953.41
2023-03-05T06:13:11.911Z,100957.03
2023-03-05T06:15:38.533Z,100954.34
2023-03-05T06:18:05.134Z,100955.28
2023-03-05T06:20:31.595Z,100959.81
2023-03-05T06:22:58.476Z,100957.22
2023-03-05T06:25:24.999Z,100950.81
2023-03-05T06:27:51.627Z,100949.84
2023-03-05T06:30:18.303Z,100955.25
2023-03-05T06:32:44.883Z,100952.47
2023-03-05T06:35:11.996Z,100957.00
2023-03-05T06:37:38.565Z,100957.00
2023-03-05T06:40:06.042Z,100951.59
2023-03-05T06:42:33.752Z,100945.50
2023-03-05T06:45:00.458Z,100952.63
2023-03-05T06:47:26.975Z,100950.03
2023-03-05T06:49:53.519Z,100943.13
2023-03-05T06:52:20.331Z,100939.66
2023-03-05T06:54:46.844Z,100951.16
2023-03-05T06:57:13.658Z,100939.66
2023-03-05T06:59:40.178Z,100934.25
2023-03-05T07:02:10.762Z,100933.50
2023-03-05T07:04:39.993Z,100933.56
2023-03-05T07:07:06.928Z,100935.38
2023-03-05T07:09:33.728Z,100930.16
2023-03-05T07:12:00.412Z,100935.63
2023-03-05T07:14:26.992Z,100936.59
2023-03-05T07:16:53.668Z,100932.97
2023-03-05T07:19:20.346Z,100932.09
2023-03-05T07:21:47.463Z,100936.53
2023-03-05T07:24:14.365Z,100934.97
2023-03-05T07:26:40.866Z,100927.56
2023-03-05T07:29:07.429Z,100926.59
2023-03-05T07:31:34.016Z,100938.31
2023-03-05T07:34:02.399Z,100927.72
2023-03-05T07:36:30.872Z,100932.97
2023-03-05T07:38:57.464Z,100930.50
2023-03-05T07:41:24.107Z,100927.88
2023-03-05T07:43:53.390Z,100935.75
2023-03-05T07:46:23.042Z,100934.72
2023-03-05T07:48:49.948Z,100935.50
2023-03-05T07:51:20.508Z,100927.38
2023-03-05T07:53:50.048Z,100921.13
2023-03-05T07:56:31.760Z,100922.97
2023-03-05T07:58:59.963Z,100930.34
2023-03-05T08:01:26.760Z,100919.00
2023-03-05T08:03:53.471Z,100922.66
2023-03-05T08:06:20.072Z,100923.75
2023-03-05T08:08:46.578Z,100911.59
2023-03-05T08:11:15.491Z,100916.97
2023-03-05T08:13:43.688Z,100905.47
2023-03-05T08:16:17.786Z,100919.13
2023-03-05T08:18:45.633Z,100903.16
2023-03-05T08:21:20.947Z,100904.88
2023-03-05T08:23:48.840Z,100913.78
2023-03-05T08:26:18.402Z,100901.41
2023-03-05T08:28:45.034Z,100902.41
2023-03-05T08:31:13.438Z,100906.13
2023-03-05T08:33:40.824Z,100907.94
2023-03-05T08:36:08.884Z,100906.28
2023-03-05T08:38:36.138Z,100908.09
2023-03-05T08:41:03.718Z,100908.13
2023-03-05T08:43:31.101Z,100905.72
2023-03-05T08:45:59.333Z,100911.91
2023-03-05T08:48:26.447Z,100903.91
2023-03-05T08:50:53.194Z,100904.84
2023-03-05T08:53:19.907Z,100904.06
2023-03-05T08:55:57.494Z,100903.22
2023-03-05T08:58:24.870Z,100909.44
2023-03-05T09:00:51.595Z,100899.72
2023-03-05T09:03:18.668Z,100903.25
2023-03-05T09:05:45.472Z,100895.31
2023-03-05T09:08:14.227Z,100890.03
2023-03-05T09:10:42.596Z,100894.31
2023-03-05T09:13:10.008Z,100895.31
2023-03-05T09:15:37.662Z,100885.34
2023-03-05T09:18:04.554Z,100895.06
2023-03-05T09:20:31.418Z,100889.88
2023-03-05T09:22:57.929Z,100876.50
2023-03-05T09:25:24.550Z,100881.94
2023-03-05T09:27:52.207Z,100878.38
2023-03-05T09:30:18.946Z,100875.00
2023-03-05T09:32:45.892Z,100879.56
2023-03-05T09:35:12.627Z,100873.44
2023-03-05T09:37:39.280Z,100870.84
2023-03-05T09:40:06.658Z,100872.97
2023-03-05T09:43:15.167Z,100875.59
2023-03-05T09:45:41.697Z,100870.63
2023-03-05T09:48:23.055Z,100874.38
2023-03-05T09:50:59.156Z,100878.31
2023-03-05T09:53:37.545Z,100874.63
2023-03-05T09:56:28.035Z,100869.22
2023-03-05T09:58:59.700Z,100870.81
2023-03-05T10:01:38.725Z,100865.47
2023-03-05T10:04:18.880Z,100872.81
2023-03-05T10:06:55.252Z,100869.22
2023-03-05T10:09:56.346Z,100876.31
2023-03-05T10:12:43.011Z,100867.47
2023-03-05T10:15:15.045Z,100869.38
2023-03-05T10:18:20.073Z,100852.09
2023-03-05T10:20:53.872Z,100862.09
2023-03-05T10:23:54.664Z,100852.34
2023-03-05T10:26:50.639Z,100853.19
2023-03-05T10:29:44.568Z,100852.38
2023-03-05T10:32:29.310Z,100848.09
2023-03-05T10:35:17.519Z,100840.13
2023-03-05T10:37:52.404Z,100835.72
2023-03-05T10:40:33.393Z,100832.34
2023-03-05T10:43:39.227Z,100834.22
2023-03-05T10:46:05.853Z,100830.84
2023-03-05T10:48:38.739Z,100824.66
2023-03-05T10:51:28.849Z,100814.00
2023-03-05T10:54:18.788Z,100812.16
2023-03-05T10:56:45.467Z,100807.59
2023-03-05T10:59:12.000Z,100807.44
2023-03-05T11:01:38.702Z,100806.50
2023-03-05T11:04:26.773Z,100811.84
2023-03-05T11:06:53.607Z,100810.88
2023-03-05T11:09:32.184Z,100800.22
2023-03-05T11:12:08.613Z,100805.59
2023-03-05T11:14:41.034Z,100787.81
2023-03-05T11:17:27.862Z,100785.13
2023-03-05T11:19:55.881Z,100801.88
2023-03-05T11:22:24.903Z,100793.78
2023-03-05T11:25:04.120Z,100785.59
2023-03-05T11:27:38.094Z,100785.66
2023-03-05T11:30:25.866Z,100784.06
2023-03-05T11:33:19.265Z,100778.72
2023-03-05T11:35:47.179Z,100776.09
2023-03-05T11:38:26.413Z,100789.41
2023-03-05T11:40:55.930Z,100790.97
2023-03-05T11:43:25.901Z,100787.19
2023-03-05T11:45:59.147Z,100774.81
2023-03-05T11:48:34.823Z,100765.13
2023-03-05T11:51:06.180Z,100757.38
2023-03-05T11:53:37.020Z,100754.13
2023-03-05T11:56:20.310Z,100757.94
2023-03-05T11:58:58.776Z,100751.09
2023-03-05T12:01:32.088Z,100747.59
2023-03-05T12:04:00.417Z,100744.91
2023-03-05T12:06:34.929Z,100748.41
2023-03-05T12:09:33.905Z,100736.78
2023-03-05T12:12:40.851Z,100734.91
2023-03-05T12:15:26.454Z,100731.19
2023-03-05T12:18:18.681Z,100722.22
2023-03-05T12:20:57.478Z,100727.50
2023-03-05T12:23:27.947Z,100717.59
2023-03-05T12:25:59.212Z,100712.94
2023-03-05T12:28:29.136Z,100702.38
2023-03-05T12:30:59.567Z,100690.91
2023-03-05T12:33:44.555Z,100682.91
2023-03-05T12:36:17.302Z,100682.97
2023-03-05T12:38:55.071Z,100681.25
2023-03-05T12:41:26.934Z,100668.84
2023-03-05T12:44:05.024Z,100668.78
2023-03-05T12:46:35.615Z,100665.22
2023-03-05T12:49:29.350Z,100665.28
2023-03-05T12:52:00.616Z,100665.31
2023-03-05T12:54:36.062Z,100665.28
2023-03-05T12:57:24.334Z,100654.47
2023-03-05T13:00:11.231Z,100655.22
2023-03-05T13:02:42.377Z,100654.25
2023-03-05T13:05:39.359Z,100652.28
2023-03-05T13:08:21.847Z,100646.88
2023-03-05T13:10:54.783Z,100643.34
2023-03-05T13:13:22.381Z,100636.22
2023-03-05T13:15:51.408Z,100637.13
2023-03-05T13:18:24.230Z,100632.75
2023-03-05T13:21:04.691Z,100631.00
2023-03-05T13:23:32.773Z,100628.38
2023-03-05T13:26:10.407Z,100627.50
2023-03-05T13:28:39.195Z,100614.09
2023-03-05T13:31:18.574Z,100618.56
2023-03-05T13:33:54.075Z,100621.31
2023-03-05T13:36:52.314Z,100613.25
2023-03-05T13:39:27.204Z,100614.09
2023-03-05T13:42:03.986Z,100604.28
2023-03-05T13:44:34.278Z,100602.56
2023-03-05T13:47:16.919Z,100595.44
2023-03-05T13:49:44.127Z,100596.31
2023-03-05T13:52:12.087Z,100595.38
2023-03-05T13:54:40.172Z,100590.91
2023-03-05T13:57:08.378Z,100595.34
2023-03-05T13:59:39.109Z,100591.69
2023-03-05T14:02:18.244Z,100584.50
2023-03-05T14:04:46.244Z,100580.00
2023-03-05T14:07:26.737Z,100579.13
2023-03-05T14:09:53.724Z,100566.59
2023-03-05T14:12:24.452Z,100575.53
2023-03-05T14:14:51.344Z,100562.09
2023-03-05T14:17:39.062Z,100573.75
2023-03-05T14:20:22.837Z,100563.03
2023-03-05T14:22:50.478Z,100557.66
2023-03-05T14:25:39.549Z,100541.59
2023-03-05T14:28:28.080Z,100538.91
2023-03-05T14:30:56.872Z,100542.47
2023-03-05T14:33:28.457Z,100534.44
2023-03-05T14:35:58.204Z,100528.16
2023-03-05T14:38:30.080Z,100538.00
2023-03-05T14:40:57.285Z,100520.13
2023-03-05T14:43:23.864Z,100525.50
2023-03-05T14:45:50.434Z,100527.25
2023-03-05T14:48:18.915Z,100524.56
2023-03-05T14:50:56.770Z,100514.75
2023-03-05T14:53:53.112Z,100511.09
2023-03-05T14:56:26.655Z,100507.53
2023-03-05T14:58:54.400Z,100493.22
2023-03-05T15:01:32.689Z,100491.44
2023-03-05T15:04:06.308Z,100486.97
2023-03-05T15:06:36.055Z,100486.97
2023-03-05T15:09:05.902Z,100482.50
2023-03-05T15:11:32.866Z,100480.72
2023-03-05T15:13:59.440Z,100472.63
2023-03-05T15:16:26.047Z,100474.44
2023-03-05T15:18:52.602Z,100469.97
2023-03-05T15:21:19.156Z,100475.28
2023-03-05T15:23:45.907Z,100481.53
2023-03-05T15:26:15.282Z,100484.16
2023-03-05T15:28:43.093Z,100499.28
2023-03-05T15:31:11.072Z,100491.09
2023-03-05T15:33:37.952Z,100486.56
2023-03-05T15:36:05.016Z,100484.66
2023-03-05T15:38:31.524Z,100480.19
2023-03-05T15:41:00.560Z,100473.88
2023-03-05T15:43:28.176Z,100480.97
2023-03-05T15:45:54.914Z,100474.75
2023-03-05T15:48:21.590Z,100473.81
2023-03-05T15:50:48.104Z,100472.91
2023-03-05T15:53:16.223Z,100468.44
2023-03-05T15:55:43.884Z,100470.25
2023-03-05T15:58:15.780Z,100467.56
2023-03-05T16:00:42.790Z,100463.97
2023-03-05T16:03:09.300Z,100459.47
2023-03-05T16:05:37.059Z,100453.25
2023-03-05T16:08:04.495Z,100450.59
2023-03-05T16:10:31.674Z,100439.84
2023-03-05T16:13:04.083Z,100447.00
2023-03-05T16:15:33.088Z,100447.88
2023-03-05T16:18:04.602Z,100447.00
2023-03-05T16:20:31.571Z,100456.75
2023-03-05T16:22:58.075Z,100451.38
2023-03-05T16:25:25.331Z,100458.50
2023-03-05T16:27:51.994Z,100446.84
2023-03-05T16:30:19.203Z,100439.66
2023-03-05T16:32:45.757Z,100446.72
2023-03-05T16:35:13.144Z,100449.34
2023-03-05T16:37:40.943Z,100440.28
2023-03-05T16:40:11.671Z,100442.13
2023-03-05T16:42:39.838Z,100436.72
2023-03-05T16:45:07.449Z,100439.41
2023-03-05T16:47:34.404Z,100444.69
2023-03-05T16:50:01.033Z,100442.00
2023-03-05T16:52:28.543Z,100431.28
2023-03-05T16:54:55.341Z,100441.97
2023-03-05T16:57:23.922Z,100437.47
2023-03-05T16:59:51.527Z,100432.97
2023-03-05T17:02:19.909Z,100432.00
2023-03-05T17:04:48.812Z,100432.88
2023-03-05T17:07:16.280Z,100419.41
2023-03-05T17:09:44.318Z,100423.88
2023-03-05T17:12:11.587Z,100423.78
2023-03-05T17:14:38.511Z,100426.44
2023-03-05T17:17:05.297Z,100432.56
2023-03-05T17:19:31.985Z,100429.03
2023-03-05T17:21:58.550Z,100418.31
2023-03-05T17:24:25.166Z,100415.63
2023-03-05T17:26:51.740Z,100411.03
2023-03-05T17:29:19.561Z,100410.94
2023-03-05T17:31:46.788Z,100414.47
2023-03-05T17:34:14.188Z,100412.72
2023-03-05T17:36:40.909Z,100417.13
2023-03-05T17:39:08.599Z,100411.78
2023-03-05T17:41:35.939Z,100416.25
2023-03-05T17:44:02.583Z,100409.91
2023-03-05T17:46:29.191Z,100409.13
2023-03-05T17:48:56.427Z,100411.78
2023-03-05T17:51:22.939Z,100415.31
2023-03-05T17:53:49.443Z,100402.81
2023-03-05T17:56:20.217Z,100407.28
2023-03-05T17:58:49.606Z,100397.47
2023-03-05T18:01:25.434Z,100394.78
2023-03-05T18:03:52.242Z,100392.06
2023-03-05T18:06:19.467Z,100392.06
2023-03-05T18:08:46.112Z,100389.31
2023-03-05T18:11:13.647Z,100389.28
2023-03-05T18:13:40.807Z,100381.22
2023-03-05T18:16:10.945Z,100386.53
2023-03-05T18:18:37.527Z,100388.34
2023-03-05T18:21:04.126Z,100384.75
2023-03-05T18:23:33.871Z,100385.63
2023-03-05T18:26:00.649Z,100373.13
2023-03-05T18:28:27.673Z,100371.31
2023-03-05T18:30:55.624Z,100370.41
2023-03-05T18:33:24.570Z,100368.72
2023-03-05T18:35:54.551Z,100372.25
2023-03-05T18:38:24.425Z,100366.91
2023-03-05T18:40:52.459Z,100365.09
2023-03-05T18:43:20.730Z,100362.41
2023-03-05T18:45:52.912Z,100355.25
2023-03-05T18:48:20.604Z,100353.53
2023-03-05T18:50:50.423Z,100346.38
2023-03-05T18:53:17.515Z,100348.13
2023-03-05T18:55:45.079Z,100349.88
2023-03-05T18:58:15.625Z,100340.06
2023-03-05T19:00:44.937Z,100342.78
2023-03-05T19:03:11.780Z,100336.56
2023-03-05T19:05:39.592Z,100339.19
2023-03-05T19:08:07.764Z,100339.22
2023-03-05T19:10:34.809Z,100342.66
2023-03-05T19:13:24.006Z,100340.94
2023-03-05T19:15:53.664Z,100334.72
2023-03-05T19:19:20.381Z,100335.56
2023-03-05T19:21:54.927Z,100333.63
2023-03-05T19:24:23.258Z,100326.47
2023-03-05T19:26:55.343Z,100324.69
2023-03-05T19:29:23.841Z,100326.53
2023-03-05T19:31:52.050Z,100324.69
2023-03-05T19:34:20.322Z,100319.31
2023-03-05T19:36:47.145Z,100317.56
2023-03-05T19:39:13.763Z,100320.16
2023-03-05T19:41:41.396Z,100321.06
2023-03-05T19:44:08.588Z,100319.22
2023-03-05T19:46:36.260Z,100307.66
2023-03-05T19:49:04.066Z,100315.63
2023-03-05T19:51:32.126Z,100307.72
2023-03-05T19:53:58.797Z,100299.66
2023-03-05T19:56:25.428Z,100297.03
2023-03-05T19:58:52.442Z,100307.84
2023-03-05T20:01:22.364Z,100306.03
2023-03-05T20:03:52.245Z,100301.56
2023-03-05T20:06:20.199Z,100290.91
2023-03-05T20:08:47.220Z,100299.84
2023-03-05T20:11:16.600Z,100296.25
2023-03-05T20:13:44.169Z,100290.09
2023-03-05T20:16:24.041Z,100289.22
2023-03-05T20:18:52.779Z,100283.88
2023-03-05T20:21:23.028Z,100280.38
2023-03-05T20:23:56.394Z,100280.31
2023-03-05T20:26:25.803Z,100286.53
2023-03-05T20:28:56.104Z,100275.00
2023-03-05T20:31:25.994Z,100275.97
2023-03-05T20:33:52.826Z,100281.34
2023-03-05T20:36:19.437Z,100266.09
2023-03-05T20:38:46.404Z,100269.63
2023-03-05T20:41:16.699Z,100267.91
2023-03-05T20:43:46.197Z,100269.69
2023-03-05T20:46:21.124Z,100263.44
2023-03-05T20:48:49.497Z,100260.75
2023-03-05T20:51:22.668Z,100257.22
2023-03-05T20:53:51.372Z,100256.28
2023-03-05T20:56:18.095Z,100243.94
2023-03-05T20:58:44.894Z,100243.06
2023-03-05T21:01:12.001Z,100236.78
2023-03-05T21:03:38.796Z,100243.00
2023-03-05T21:06:07.197Z,100235.94
2023-03-05T21:08:33.804Z,100235.94
2023-03-05T21:11:06.622Z,100226.19
2023-03-05T21:13:33.782Z,100218.97
2023-03-05T21:16:05.050Z,100212.75
2023-03-05T21:18:32.194Z,100215.53
2023-03-05T21:21:01.432Z,100219.94
2023-03-05T21:23:28.832Z,100215.50
2023-03-05T21:25:55.447Z,100212.88
2023-03-05T21:28:22.171Z,100209.31
2023-03-05T21:30:51.995Z,100198.59
2023-03-05T21:33:29.682Z,100195.97
2023-03-05T21:35:58.026Z,100194.13
2023-03-05T21:38:27.088Z,100197.75
2023-03-05T21:40:54.237Z,100187.94
2023-03-05T21:43:23.925Z,100186.09
2023-03-05T21:45:53.694Z,100184.38
2023-03-05T21:48:21.987Z,100178.97
2023-03-05T21:50:49.377Z,100176.31
2023-03-05T21:53:17.215Z,100168.28
2023-03-05T21:56:20.807Z,100168.34
2023-03-05T21:58:48.671Z,100166.53
2023-03-05T22:01:18.342Z,100163.00
2023-03-05T22:03:45.612Z,100169.25
2023-03-05T22:06:14.004Z,100166.63
2023-03-05T22:08:40.820Z,100163.06
2023-03-05T22:11:10.980Z,100155.91
2023-03-05T22:13:37.827Z,100152.31
2023-03-05T22:16:11.404Z,100157.66
2023-03-05T22:18:38.055Z,100147.81
2023-03-05T22:21:04.990Z,100146.03
2023-03-05T22:23:33.989Z,100152.22
2023-03-05T22:26:07.285Z,100139.72
2023-03-05T22:28:34.827Z,100136.19
2023-03-05T22:31:03.483Z,100138.88
2023-03-05T22:33:30.783Z,100130.84
2023-03-05T22:35:58.499Z,100123.69
2023-03-05T22:38:25.291Z,100124.63
2023-03-05T22:40:52.458Z,100121.94
2023-03-05T22:43:19.522Z,100123.69
2023-03-05T22:45:48.282Z,100116.53
2023-03-05T22:48:15.133Z,100110.31
2023-03-05T22:50:43.817Z,100107.63
2023-03-05T22:53:11.993Z,100105.84
2023-03-05T22:55:40.602Z,100103.16
2023-03-05T22:58:07.155Z,100095.13
2023-03-05T23:00:33.822Z,100094.19
2023-03-05T23:03:00.414Z,100102.22
2023-03-05T23:05:30.473Z,100096.88
2023-03-05T23:07:57.073Z,100088.91
2023-03-05T23:10:27.310Z,100086.19
2023-03-05T23:12:56.784Z,100093.31
2023-03-05T23:15:27.016Z,100082.63
2023-03-05T23:17:54.018Z,100075.47
2023-03-05T23:20:24.610Z,100082.56
2023-03-05T23:22:56.201Z,100080.84
2023-03-05T23:25:25.763Z,100075.50
2023-03-05T23:27:53.185Z,100089.72
2023-03-05T23:30:27.075Z,100077.28
2023-03-05T23:32:58.798Z,100084.38
2023-03-05T23:35:28.378Z,100084.31
2023-03-05T23:37:56.704Z,100086.09
2023-03-05T23:40:28.393Z,100082.56
2023-03-05T23:42:55.293Z,100078.09
2023-03-05T23:45:22.694Z,100079.88
2023-03-05T23:47:51.949Z,100081.72
2023-03-05T23:50:22.019Z,100071.88
2023-03-05T23:52:50.772Z,100064.78
2023-03-05T23:55:23.372Z,100059.47
2023-03-05T23:57:49.917Z,100064.78
